createdAt,value
2022-11-26T00:02:30.456Z,30.70
2022-11-26T00:05:00.016Z,28.27
2022-11-26T00:07:30.347Z,33.03
2022-11-26T00:09:59.603Z,33.50
2022-11-26T00:12:34.589Z,35.00
2022-11-26T00:15:25.380Z,34.67
2022-11-26T00:17:54.165Z,33.37
2022-11-26T00:20:28.456Z,34.37
2022-11-26T00:23:01.589Z,36.50
2022-11-26T00:25:41.006Z,35.07
2022-11-26T00:28:30.005Z,35.67
2022-11-26T00:31:04.232Z,36.77
2022-11-26T00:33:32.780Z,36.23
2022-11-26T00:36:22.196Z,37.37
2022-11-26T00:38:57.511Z,36.57
2022-11-26T00:41:31.808Z,35.23
2022-11-26T00:43:59.333Z,32.63
2022-11-26T00:46:26.969Z,34.63
2022-11-26T00:48:54.389Z,33.33
2022-11-26T00:51:28.247Z,34.87
2022-11-26T00:53:59.845Z,33.40
2022-11-26T00:56:27.985Z,34.00
2022-11-26T00:58:55.638Z,33.20
2022-11-26T01:01:28.904Z,33.87
2022-11-26T01:03:58.520Z,34.00
2022-11-26T01:06:30.792Z,34.17
2022-11-26T01:08:58.551Z,36.57
2022-11-26T01:11:26.516Z,37.10
2022-11-26T01:13:55.203Z,38.30
2022-11-26T01:16:25.958Z,34.53
2022-11-26T01:18:56.602Z,34.03
2022-11-26T01:21:26.599Z,33.70
2022-11-26T01:23:54.465Z,35.63
2022-11-26T01:26:28.601Z,45.27
2022-11-26T01:28:56.447Z,39.53
2022-11-26T01:31:27.662Z,31.80
2022-11-26T01:33:55.894Z,31.30
2022-11-26T01:36:29.238Z,30.77
2022-11-26T01:39:04.181Z,30.73
2022-11-26T01:42:26.153Z,32.13
2022-11-26T01:44:53.624Z,31.47
2022-11-26T01:47:25.054Z,31.23
2022-11-26T01:50:29.246Z,30.73
2022-11-26T01:53:02.907Z,28.80
2022-11-26T01:55:56.674Z,28.53
2022-11-26T01:58:40.217Z,28.67
2022-11-26T02:01:08.370Z,28.10
2022-11-26T02:04:03.562Z,29.77
2022-11-26T02:06:34.441Z,29.07
2022-11-26T02:09:06.214Z,28.43
2022-11-26T02:11:33.801Z,28.33
2022-11-26T02:14:18.396Z,27.17
2022-11-26T02:17:10.773Z,27.17
2022-11-26T02:20:11.798Z,26.47
2022-11-26T02:23:03.279Z,27.23
2022-11-26T02:26:32.635Z,24.87
2022-11-26T02:29:10.968Z,24.13
2022-11-26T02:32:14.411Z,25.33
2022-11-26T02:34:56.097Z,23.87
2022-11-26T02:37:34.683Z,24.03
2022-11-26T02:40:02.468Z,24.33
2022-11-26T02:42:32.853Z,24.07
2022-11-26T02:45:10.970Z,24.00
2022-11-26T02:47:42.973Z,22.90
2022-11-26T02:50:20.918Z,22.40
2022-11-26T02:52:50.880Z,21.30
2022-11-26T02:55:24.447Z,21.70
2022-11-26T02:57:52.963Z,22.03
2022-11-26T03:00:20.997Z,20.13
2022-11-26T03:03:17.258Z,20.47
2022-11-26T03:05:44.827Z,20.60
2022-11-26T03:08:12.343Z,18.87
2022-11-26T03:10:39.833Z,20.20
2022-11-26T03:13:07.293Z,20.10
2022-11-26T03:15:34.721Z,19.37
2022-11-26T03:18:02.091Z,20.47
2022-11-26T03:20:29.552Z,20.77
2022-11-26T03:22:57.046Z,20.20
2022-11-26T03:25:24.489Z,21.93
2022-11-26T03:27:51.981Z,22.70
2022-11-26T03:30:19.527Z,22.47
2022-11-26T03:32:46.923Z,22.03
2022-11-26T03:35:14.435Z,21.47
2022-11-26T03:37:41.860Z,22.17
2022-11-26T03:40:10.285Z,20.33
2022-11-26T03:42:37.944Z,19.93
2022-11-26T03:45:06.384Z,20.70
2022-11-26T03:47:33.981Z,20.67
2022-11-26T03:50:01.531Z,22.27
2022-11-26T03:52:28.934Z,25.20
2022-11-26T03:54:56.837Z,23.77
2022-11-26T03:57:24.444Z,23.47
2022-11-26T03:59:51.963Z,23.93
2022-11-26T04:02:19.456Z,24.57
2022-11-26T04:04:46.883Z,23.23
2022-11-26T04:07:14.352Z,23.13
2022-11-26T04:09:41.881Z,23.43
2022-11-26T04:12:09.279Z,23.27
2022-11-26T04:14:37.044Z,22.80
2022-11-26T04:17:04.803Z,23.73
2022-11-26T04:19:32.390Z,23.20
2022-11-26T04:21:59.792Z,23.50
2022-11-26T04:24:27.366Z,21.53
2022-11-26T04:26:54.776Z,22.30
2022-11-26T04:29:22.206Z,22.97
2022-11-26T04:31:49.772Z,23.83
2022-11-26T04:34:17.301Z,24.47
2022-11-26T04:36:44.716Z,21.90
2022-11-26T04:39:12.833Z,23.00
2022-11-26T04:41:40.300Z,22.90
2022-11-26T04:44:07.848Z,21.13
2022-11-26T04:46:35.388Z,22.07
2022-11-26T04:49:02.874Z,21.37
2022-11-26T04:51:30.648Z,21.17
2022-11-26T04:54:01.701Z,21.07
2022-11-26T04:56:30.542Z,20.03
2022-11-26T04:58:58.038Z,19.80
2022-11-26T05:01:25.558Z,21.07
2022-11-26T05:03:53.031Z,19.93
2022-11-26T05:06:20.451Z,21.87
2022-11-26T05:08:47.856Z,21.67
2022-11-26T05:11:15.293Z,24.10
2022-11-26T05:13:43.061Z,23.27
2022-11-26T05:16:10.697Z,25.47
2022-11-26T05:18:38.207Z,26.23
2022-11-26T05:21:06.984Z,27.30
2022-11-26T05:23:34.905Z,26.10
2022-11-26T05:26:02.304Z,25.10
2022-11-26T05:28:29.717Z,26.10
2022-11-26T05:31:02.283Z,25.63
2022-11-26T05:33:29.978Z,25.60
2022-11-26T05:35:57.389Z,24.10
2022-11-26T05:38:24.925Z,23.30
2022-11-26T05:40:52.399Z,23.20
2022-11-26T05:43:20.000Z,20.07
2022-11-26T05:45:47.497Z,17.67
2022-11-26T05:48:15.139Z,17.87
2022-11-26T05:50:42.666Z,15.07
2022-11-26T05:53:10.093Z,14.53
2022-11-26T05:55:37.576Z,16.10
2022-11-26T05:58:05.130Z,15.23
2022-11-26T06:00:32.573Z,16.07
2022-11-26T06:03:00.099Z,15.23
2022-11-26T06:05:27.715Z,14.70
2022-11-26T06:07:55.183Z,14.47
2022-11-26T06:10:22.679Z,15.20
2022-11-26T06:12:50.159Z,14.33
2022-11-26T06:15:17.736Z,14.63
2022-11-26T06:17:45.220Z,13.77
2022-11-26T06:20:13.477Z,14.13
2022-11-26T06:22:43.129Z,14.27
2022-11-26T06:25:14.143Z,18.37
2022-11-26T06:27:42.535Z,18.53
2022-11-26T06:30:11.682Z,18.57
2022-11-26T06:32:39.087Z,22.57
2022-11-26T06:35:06.854Z,15.87
2022-11-26T06:37:34.332Z,15.63
2022-11-26T06:40:01.909Z,13.77
2022-11-26T06:42:29.898Z,12.13
2022-11-26T06:45:00.006Z,12.50
2022-11-26T06:47:27.956Z,12.60
2022-11-26T06:49:55.361Z,12.20
2022-11-26T06:52:22.851Z,11.90
2022-11-26T06:54:50.412Z,11.13
2022-11-26T06:57:17.895Z,10.97
2022-11-26T06:59:45.287Z,10.30
2022-11-26T07:02:12.756Z,10.43
2022-11-26T07:04:40.559Z,10.47
2022-11-26T07:07:08.520Z,9.90
2022-11-26T07:09:35.997Z,9.60
2022-11-26T07:12:03.533Z,9.20
2022-11-26T07:14:31.001Z,9.67
2022-11-26T07:16:58.471Z,8.93
2022-11-26T07:19:26.565Z,9.17
2022-11-26T07:21:54.519Z,9.30
2022-11-26T07:24:21.920Z,9.07
2022-11-26T07:26:49.462Z,9.10
2022-11-26T07:29:16.975Z,8.70
2022-11-26T07:31:44.432Z,9.53
2022-11-26T07:34:11.883Z,8.93
2022-11-26T07:36:43.239Z,9.23
2022-11-26T07:39:12.150Z,10.27
2022-11-26T07:41:39.733Z,8.90
2022-11-26T07:44:07.183Z,9.20
2022-11-26T07:46:34.667Z,11.00
2022-11-26T07:49:02.355Z,8.67
2022-11-26T07:51:32.603Z,8.50
2022-11-26T07:54:05.264Z,8.60
2022-11-26T07:56:32.859Z,8.90
2022-11-26T07:59:00.951Z,9.03
2022-11-26T08:01:32.464Z,8.20
2022-11-26T08:04:04.716Z,9.10
2022-11-26T08:06:33.656Z,8.77
2022-11-26T08:09:02.600Z,8.77
2022-11-26T08:11:32.808Z,8.77
2022-11-26T08:14:06.738Z,9.27
2022-11-26T08:16:34.584Z,7.40
2022-11-26T08:19:12.732Z,8.53
2022-11-26T08:21:40.987Z,8.13
2022-11-26T08:24:13.901Z,7.60
2022-11-26T08:26:44.161Z,7.13
2022-11-26T08:29:13.858Z,7.43
2022-11-26T08:31:45.553Z,7.87
2022-11-26T08:34:16.330Z,7.47
2022-11-26T08:36:45.194Z,9.13
2022-11-26T08:39:17.938Z,9.17
2022-11-26T08:41:50.580Z,7.90
2022-11-26T08:44:19.803Z,9.70
2022-11-26T08:46:47.450Z,7.20
2022-11-26T08:49:15.371Z,7.93
2022-11-26T08:51:43.883Z,7.90
2022-11-26T08:54:12.100Z,7.03
2022-11-26T08:56:39.629Z,7.57
2022-11-26T08:59:07.048Z,6.90
2022-11-26T09:01:34.938Z,6.30
2022-11-26T09:04:04.195Z,5.70
2022-11-26T09:06:36.853Z,5.10
2022-11-26T09:09:15.448Z,6.00
2022-11-26T09:11:57.698Z,4.83
2022-11-26T09:14:28.670Z,5.13
2022-11-26T09:16:57.830Z,4.77
2022-11-26T09:19:27.074Z,4.17
2022-11-26T09:21:55.129Z,4.50
2022-11-26T09:24:23.280Z,3.97
2022-11-26T09:26:51.111Z,4.17
2022-11-26T09:29:22.229Z,4.27
2022-11-26T09:32:21.250Z,4.70
2022-11-26T09:34:39.337Z,4.60
2022-11-26T09:37:07.881Z,5.13
2022-11-26T09:39:35.364Z,5.30
2022-11-26T09:42:27.951Z,5.23
2022-11-26T09:45:29.285Z,6.17
2022-11-26T09:47:57.102Z,7.07
2022-11-26T09:50:31.854Z,10.60
2022-11-26T09:53:27.330Z,9.47
2022-11-26T09:55:56.845Z,10.00
2022-11-26T09:58:57.874Z,10.50
2022-11-26T10:01:25.820Z,10.40
2022-11-26T10:03:53.558Z,9.57
2022-11-26T10:06:45.040Z,9.70
2022-11-26T10:09:30.307Z,9.37
2022-11-26T10:12:24.972Z,9.77
2022-11-26T10:15:14.612Z,10.10
2022-11-26T10:18:04.147Z,10.40
2022-11-26T10:20:37.271Z,10.13
2022-11-26T10:23:13.530Z,10.47
2022-11-26T10:25:52.861Z,10.67
2022-11-26T10:28:40.477Z,10.63
2022-11-26T10:31:26.600Z,11.53
2022-11-26T10:34:04.560Z,15.17
2022-11-26T10:36:41.877Z,12.83
2022-11-26T10:39:17.034Z,10.90
2022-11-26T10:41:45.229Z,14.90
2022-11-26T10:44:41.540Z,11.77
2022-11-26T10:47:31.002Z,12.50
2022-11-26T10:50:19.197Z,13.87
2022-11-26T10:52:55.019Z,14.93
2022-11-26T10:55:30.776Z,14.83
2022-11-26T10:58:15.335Z,17.00
2022-11-26T11:00:49.601Z,18.47
2022-11-26T11:03:38.523Z,19.03
2022-11-26T11:06:19.127Z,19.10
2022-11-26T11:08:52.520Z,20.50
2022-11-26T11:11:21.170Z,20.60
2022-11-26T11:13:49.562Z,23.00
2022-11-26T11:16:50.640Z,20.23
2022-11-26T11:19:28.295Z,21.20
2022-11-26T11:21:55.894Z,21.13
2022-11-26T11:24:28.790Z,21.57
2022-11-26T11:27:00.441Z,20.87
2022-11-26T11:29:37.306Z,20.70
2022-11-26T11:32:09.734Z,18.77
2022-11-26T11:34:43.057Z,20.60
2022-11-26T11:37:23.918Z,19.80
2022-11-26T11:40:09.207Z,21.13
2022-11-26T11:42:40.639Z,20.33
2022-11-26T11:45:28.636Z,21.37
2022-11-26T11:48:04.702Z,21.50
2022-11-26T11:50:46.929Z,21.13
2022-11-26T11:53:39.385Z,21.30
2022-11-26T11:56:34.328Z,21.40
2022-11-26T11:59:25.295Z,20.37
2022-11-26T12:02:21.452Z,19.27
2022-11-26T12:04:58.361Z,19.47
2022-11-26T12:07:57.276Z,18.40
2022-11-26T12:11:06.110Z,18.83
2022-11-26T12:13:48.050Z,18.37
2022-11-26T12:16:18.123Z,19.73
2022-11-26T12:19:02.766Z,19.20
2022-11-26T12:21:54.585Z,18.27
2022-11-26T12:24:46.672Z,19.17
2022-11-26T12:27:33.697Z,20.70
2022-11-26T12:30:38.943Z,17.70
2022-11-26T12:33:20.811Z,17.57
2022-11-26T12:36:01.573Z,16.97
2022-11-26T12:38:40.255Z,15.77
2022-11-26T12:41:43.389Z,18.30
2022-11-26T12:44:42.688Z,19.60
2022-11-26T12:47:18.848Z,19.53
2022-11-26T12:50:03.541Z,18.40
2022-11-26T12:53:14.014Z,19.40
2022-11-26T12:55:54.154Z,19.13
2022-11-26T12:58:56.508Z,19.17
2022-11-26T13:01:24.550Z,18.43
2022-11-26T13:04:03.360Z,18.40
2022-11-26T13:07:23.608Z,18.00
2022-11-26T13:10:02.912Z,17.27
2022-11-26T13:13:00.501Z,16.20
2022-11-26T13:16:11.223Z,18.30
2022-11-26T13:18:46.775Z,19.93
2022-11-26T13:21:41.425Z,17.10
2022-11-26T13:24:23.795Z,17.97
2022-11-26T13:27:37.232Z,15.80
2022-11-26T13:30:21.417Z,17.40
2022-11-26T13:33:27.697Z,17.17
2022-11-26T13:36:18.863Z,19.23
2022-11-26T13:38:52.658Z,23.47
2022-11-26T13:42:10.121Z,20.40
2022-11-26T13:44:47.428Z,20.13
2022-11-26T13:47:37.477Z,17.93
2022-11-26T13:50:10.606Z,17.40
2022-11-26T13:52:48.133Z,17.43
2022-11-26T13:55:51.444Z,16.83
2022-11-26T13:58:28.234Z,16.57
2022-11-26T14:00:55.725Z,18.13
2022-11-26T14:03:47.417Z,18.97
2022-11-26T14:06:15.803Z,18.80
2022-11-26T14:08:51.436Z,18.10
2022-11-26T14:11:40.487Z,17.77
2022-11-26T14:14:26.179Z,18.27
2022-11-26T14:17:02.990Z,17.60
2022-11-26T14:19:49.445Z,18.00
2022-11-26T14:22:22.517Z,17.50
2022-11-26T14:24:50.157Z,18.07
2022-11-26T14:27:33.660Z,17.97
2022-11-26T14:30:06.837Z,18.03
2022-11-26T14:33:11.372Z,18.90
2022-11-26T14:35:41.429Z,18.13
2022-11-26T14:38:26.133Z,18.23
2022-11-26T14:41:01.108Z,17.03
2022-11-26T14:43:29.552Z,18.30
2022-11-26T14:46:17.701Z,20.83
2022-11-26T14:48:48.405Z,30.30
2022-11-26T14:51:26.835Z,26.80
2022-11-26T14:53:56.080Z,21.77
2022-11-26T14:56:25.609Z,23.47
2022-11-26T14:58:56.724Z,36.13
2022-11-26T15:01:29.413Z,30.80
2022-11-26T15:04:06.280Z,26.53
2022-11-26T15:06:42.650Z,23.03
2022-11-26T15:09:20.076Z,23.30
2022-11-26T15:12:15.377Z,25.00
2022-11-26T15:14:54.768Z,23.17
2022-11-26T15:17:28.007Z,24.37
2022-11-26T15:20:00.047Z,25.87
2022-11-26T15:22:54.979Z,28.60
2022-11-26T15:25:26.513Z,37.63
2022-11-26T15:28:05.765Z,36.33
2022-11-26T15:30:38.514Z,26.13
2022-11-26T15:33:16.419Z,33.27
2022-11-26T15:35:44.189Z,27.17
2022-11-26T15:38:17.436Z,26.70
2022-11-26T15:40:51.663Z,26.50
2022-11-26T15:43:42.344Z,26.40
2022-11-26T15:46:13.074Z,27.67
2022-11-26T15:48:51.933Z,29.43
2022-11-26T15:51:47.464Z,46.50
2022-11-26T15:54:56.777Z,30.10
2022-11-26T15:57:31.600Z,27.50
2022-11-26T16:00:18.632Z,26.03
2022-11-26T16:02:46.149Z,24.30
2022-11-26T16:05:33.813Z,25.63
2022-11-26T16:08:05.681Z,29.27
2022-11-26T16:10:37.420Z,56.63
2022-11-26T16:13:16.947Z,35.83
2022-11-26T16:16:24.695Z,29.10
2022-11-26T16:19:04.561Z,41.63
2022-11-26T16:21:34.607Z,32.80
2022-11-26T16:24:22.044Z,53.43
2022-11-26T16:27:19.213Z,36.00
2022-11-26T16:29:47.297Z,86.00
2022-11-26T16:32:17.491Z,37.90
2022-11-26T16:34:46.041Z,50.90
2022-11-26T16:37:26.533Z,32.40
2022-11-26T16:40:03.042Z,30.80
2022-11-26T16:42:32.873Z,31.50
2022-11-26T16:45:04.202Z,31.03
2022-11-26T16:47:39.532Z,29.80
2022-11-26T16:50:16.726Z,37.73
2022-11-26T16:52:44.675Z,36.17
2022-11-26T16:55:14.628Z,32.17
2022-11-26T16:57:46.943Z,34.03
2022-11-26T17:00:21.463Z,31.23
2022-11-26T17:02:49.155Z,35.13
2022-11-26T17:05:17.852Z,33.97
2022-11-26T17:07:49.783Z,30.77
2022-11-26T17:10:30.627Z,29.27
2022-11-26T17:12:58.486Z,26.70
2022-11-26T17:15:25.916Z,26.93
2022-11-26T17:18:04.391Z,25.00
2022-11-26T17:20:36.892Z,25.87
2022-11-26T17:23:09.582Z,26.17
2022-11-26T17:25:37.037Z,25.60
2022-11-26T17:28:11.646Z,27.40
2022-11-26T17:30:40.465Z,25.70
2022-11-26T17:33:09.631Z,25.73
2022-11-26T17:35:38.119Z,25.00
2022-11-26T17:38:21.292Z,26.30
2022-11-26T17:40:49.175Z,25.90
2022-11-26T17:43:17.249Z,27.20
2022-11-26T17:45:44.859Z,26.10
2022-11-26T17:48:14.335Z,23.87
2022-11-26T17:50:42.842Z,23.20
2022-11-26T17:53:10.346Z,24.60
2022-11-26T17:55:38.471Z,23.90
2022-11-26T17:58:05.886Z,22.73
2022-11-26T18:00:33.383Z,23.10
2022-11-26T18:03:02.191Z,24.53
2022-11-26T18:05:29.668Z,24.80
2022-11-26T18:07:57.155Z,23.33
2022-11-26T18:10:24.862Z,22.93
2022-11-26T18:12:55.752Z,23.90
2022-11-26T18:15:26.777Z,28.40
2022-11-26T18:17:56.048Z,27.70
2022-11-26T18:20:28.985Z,28.70
2022-11-26T18:23:00.957Z,27.33
2022-11-26T18:25:30.013Z,26.13
2022-11-26T18:27:57.381Z,24.30
2022-11-26T18:30:25.464Z,27.60
2022-11-26T18:32:53.058Z,27.27
2022-11-26T18:35:20.509Z,26.40
2022-11-26T18:37:47.923Z,25.10
2022-11-26T18:40:17.926Z,24.33
2022-11-26T18:42:45.483Z,25.90
2022-11-26T18:45:16.040Z,27.53
2022-11-26T18:47:43.777Z,25.00
2022-11-26T18:50:13.822Z,22.90
2022-11-26T18:52:41.343Z,27.03
2022-11-26T18:55:09.927Z,26.80
2022-11-26T18:57:37.442Z,24.90
2022-11-26T19:00:07.186Z,26.03
2022-11-26T19:02:36.531Z,25.90
2022-11-26T19:05:05.335Z,30.37
2022-11-26T19:07:33.316Z,31.70
2022-11-26T19:10:00.804Z,29.27
2022-11-26T19:12:28.302Z,27.50
2022-11-26T19:14:55.698Z,25.43
2022-11-26T19:17:23.114Z,23.63
2022-11-26T19:19:50.494Z,25.30
2022-11-26T19:22:17.940Z,27.47
2022-11-26T19:24:45.365Z,27.27
2022-11-26T19:27:13.938Z,27.13
2022-11-26T19:29:41.647Z,30.20
2022-11-26T19:32:09.222Z,30.70
2022-11-26T19:34:37.019Z,28.70
2022-11-26T19:37:04.644Z,24.87
2022-11-26T19:39:32.515Z,28.13
2022-11-26T19:42:00.252Z,27.40
2022-11-26T19:44:27.636Z,26.50
2022-11-26T19:46:55.059Z,25.60
2022-11-26T19:49:22.966Z,27.83
2022-11-26T19:51:50.417Z,26.53
2022-11-26T19:54:17.888Z,28.50
2022-11-26T19:56:46.934Z,54.83
2022-11-26T19:59:16.074Z,36.30
2022-11-26T20:01:43.651Z,30.53
2022-11-26T20:04:16.161Z,29.90
2022-11-26T20:06:44.263Z,25.80
2022-11-26T20:09:14.169Z,24.83
2022-11-26T20:11:42.360Z,21.40
2022-11-26T20:14:10.839Z,20.47
2022-11-26T20:16:42.303Z,23.37
2022-11-26T20:19:11.315Z,21.87
2022-11-26T20:21:39.485Z,24.70
2022-11-26T20:24:12.716Z,25.60
2022-11-26T20:26:42.438Z,24.43
2022-11-26T20:29:13.892Z,25.93
2022-11-26T20:31:50.827Z,35.80
2022-11-26T20:34:23.788Z,36.80
2022-11-26T20:36:51.248Z,36.00
2022-11-26T20:39:22.411Z,41.40
2022-11-26T20:41:50.820Z,35.27
2022-11-26T20:44:18.475Z,32.73
2022-11-26T20:46:45.915Z,41.30
2022-11-26T20:49:16.101Z,38.20
2022-11-26T20:51:43.612Z,36.03
2022-11-26T20:54:11.075Z,34.83
2022-11-26T20:56:38.611Z,34.70
2022-11-26T20:59:09.000Z,31.40
2022-11-26T21:01:37.407Z,26.97
2022-11-26T21:04:05.213Z,28.50
2022-11-26T21:06:35.276Z,34.40
2022-11-26T21:09:05.693Z,34.87
2022-11-26T21:11:33.399Z,32.43
2022-11-26T21:14:01.878Z,31.40
2022-11-26T21:16:30.384Z,29.10
2022-11-26T21:18:58.844Z,30.97
2022-11-26T21:21:28.266Z,39.37
2022-11-26T21:23:57.535Z,43.33
2022-11-26T21:26:26.797Z,47.33
2022-11-26T21:28:59.417Z,47.17
2022-11-26T21:31:30.246Z,40.90
2022-11-26T21:34:04.249Z,34.63
2022-11-26T21:36:35.784Z,28.47
2022-11-26T21:39:06.778Z,27.50
2022-11-26T21:41:34.416Z,26.73
2022-11-26T21:44:04.088Z,33.90
2022-11-26T21:46:37.917Z,29.37
2022-11-26T21:49:06.458Z,29.90
2022-11-26T21:51:33.928Z,34.73
2022-11-26T21:54:01.323Z,29.70
2022-11-26T21:56:31.579Z,31.83
2022-11-26T21:59:00.822Z,35.67
2022-11-26T22:01:36.148Z,43.47
2022-11-26T22:04:08.450Z,35.97
2022-11-26T22:06:36.774Z,30.40
2022-11-26T22:09:05.744Z,29.37
2022-11-26T22:11:36.873Z,27.77
2022-11-26T22:14:05.913Z,26.10
2022-11-26T22:16:34.321Z,26.30
2022-11-26T22:19:02.434Z,26.77
2022-11-26T22:21:40.158Z,25.60
2022-11-26T22:24:11.979Z,24.23
2022-11-26T22:26:39.769Z,25.87
2022-11-26T22:29:07.699Z,25.07
2022-11-26T22:31:37.970Z,28.07
2022-11-26T22:34:18.660Z,26.87
2022-11-26T22:36:46.200Z,28.00
2022-11-26T22:39:16.932Z,26.93
2022-11-26T22:41:46.231Z,23.73
2022-11-26T22:44:15.820Z,23.43
2022-11-26T22:46:43.739Z,24.20
2022-11-26T22:49:15.998Z,26.03
2022-11-26T22:51:43.751Z,24.63
2022-11-26T22:54:14.326Z,24.40
2022-11-26T22:56:42.485Z,26.10
2022-11-26T22:59:13.420Z,26.97
2022-11-26T23:01:41.073Z,27.97
2022-11-26T23:04:10.868Z,25.47
2022-11-26T23:06:40.428Z,24.20
2022-11-26T23:09:09.782Z,23.93
2022-11-26T23:11:40.603Z,21.97
2022-11-26T23:14:09.770Z,26.47
2022-11-26T23:16:39.976Z,26.43
2022-11-26T23:19:07.833Z,26.17
2022-11-26T23:21:40.513Z,26.90
2022-11-26T23:24:09.261Z,23.97
2022-11-26T23:26:39.160Z,24.80
2022-11-26T23:29:08.118Z,24.30
2022-11-26T23:31:45.456Z,23.87
2022-11-26T23:34:13.440Z,24.37
2022-11-26T23:36:41.314Z,24.90
2022-11-26T23:39:12.175Z,23.97
2022-11-26T23:41:39.793Z,23.03
2022-11-26T23:44:07.339Z,21.73
2022-11-26T23:46:37.742Z,22.43
2022-11-26T23:49:05.305Z,22.00
2022-11-26T23:51:34.045Z,23.43
2022-11-26T23:54:01.570Z,22.00
2022-11-26T23:56:32.716Z,22.60
2022-11-26T23:59:03.093Z,22.20
